createdAt,value
2018-04-15T05:30:06.929Z,98.30
2018-04-15T05:32:39.130Z,98.20
2018-04-15T05:35:11.006Z,98.40
2018-04-15T05:37:42.887Z,97.90
2018-04-15T05:40:14.776Z,97.90
2018-04-15T05:42:46.681Z,97.90
2018-04-15T05:45:18.553Z,97.90
2018-04-15T05:47:50.454Z,98.30
2018-04-15T05:50:22.330Z,97.90
2018-04-15T05:52:54.230Z,98.00
2018-04-15T05:55:26.116Z,97.90
2018-04-15T05:57:57.997Z,97.90
2018-04-15T06:00:29.891Z,97.90
2018-04-15T06:03:02.560Z,97.70
2018-04-15T06:05:35.206Z,97.60
2018-04-15T06:08:07.081Z,97.50
2018-04-15T06:10:38.967Z,97.60
2018-04-15T06:13:10.867Z,97.90
2018-04-15T06:15:43.510Z,97.90
2018-04-15T06:18:15.391Z,97.60
2018-04-15T06:20:47.265Z,97.40
2018-04-15T06:23:19.161Z,97.60
2018-04-15T06:25:51.046Z,97.70
2018-04-15T06:28:23.693Z,97.50
2018-04-15T06:30:55.573Z,97.50
2018-04-15T06:33:28.258Z,97.60
2018-04-15T06:36:00.884Z,97.20
2018-04-15T06:38:32.846Z,97.20
2018-04-15T06:41:04.727Z,97.20
2018-04-15T06:43:36.827Z,97.10
2018-04-15T06:46:09.004Z,97.00
2018-04-15T06:48:40.913Z,95.80
2018-04-15T06:51:12.782Z,95.60
2018-04-15T06:53:44.665Z,95.10
2018-04-15T06:56:17.562Z,93.10
2018-04-15T06:58:49.441Z,93.10
2018-04-15T07:01:21.314Z,93.00
2018-04-15T07:03:53.193Z,85.90
2018-04-15T07:06:25.311Z,85.00
2018-04-15T07:08:57.189Z,78.70
2018-04-15T07:11:29.061Z,79.20
2018-04-15T07:14:00.970Z,78.80
2018-04-15T07:16:33.626Z,80.70
2018-04-15T07:19:05.503Z,80.70
2018-04-15T07:21:37.380Z,82.40
2018-04-15T07:24:10.027Z,84.10
2018-04-15T07:26:41.904Z,84.10
2018-04-15T07:29:14.562Z,79.30
2018-04-15T07:31:46.440Z,78.30
2018-04-15T07:34:19.095Z,74.00
2018-04-15T07:36:51.223Z,73.40
2018-04-15T07:39:23.110Z,71.10
2018-04-15T07:41:54.976Z,75.60
2018-04-15T07:44:26.867Z,72.10
2018-04-15T07:46:59.536Z,66.30
2018-04-15T07:49:31.426Z,66.20
2018-04-15T07:52:03.309Z,68.30
2018-04-15T07:54:35.207Z,69.50
2018-04-15T07:57:07.094Z,73.10
2018-04-15T07:59:39.753Z,77.90
2018-04-15T08:02:11.618Z,77.90
2018-04-15T08:04:44.278Z,81.00
2018-04-15T08:07:16.161Z,80.80
2018-04-15T08:09:48.828Z,79.80
2018-04-15T08:12:20.711Z,79.70
2018-04-15T08:14:53.362Z,80.70
2018-04-15T08:17:25.235Z,80.70
2018-04-15T08:19:57.122Z,80.90
2018-04-15T08:22:29.010Z,81.80
2018-04-15T08:25:01.148Z,82.40
2018-04-15T08:27:33.313Z,83.00
2018-04-15T08:30:05.195Z,83.40
2018-04-15T08:32:37.338Z,83.70
2018-04-15T08:35:09.234Z,83.80
2018-04-15T08:37:41.099Z,84.20
2018-04-15T08:40:13.043Z,83.60
2018-04-15T08:42:44.907Z,82.30
2018-04-15T08:45:16.788Z,82.10
2018-04-15T08:47:48.662Z,80.50
2018-04-15T08:50:20.551Z,81.50
2018-04-15T08:52:53.417Z,80.70
2018-04-15T08:55:25.301Z,80.60
2018-04-15T08:57:57.182Z,80.20
2018-04-15T09:00:29.071Z,80.90
2018-04-15T09:03:00.941Z,80.60
2018-04-15T09:05:32.898Z,81.50
2018-04-15T09:08:04.782Z,80.50
2018-04-15T09:10:38.273Z,77.60
2018-04-15T09:13:10.141Z,77.50
2018-04-15T09:15:42.790Z,77.40
2018-04-15T09:18:14.764Z,76.70
2018-04-15T09:20:46.674Z,77.40
2018-04-15T09:23:18.670Z,77.70
2018-04-15T09:25:50.558Z,77.90
2018-04-15T09:28:22.432Z,76.70
2018-04-15T09:30:55.159Z,76.70
2018-04-15T09:33:27.050Z,75.90
2018-04-15T09:35:58.946Z,76.90
2018-04-15T09:38:31.987Z,77.80
2018-04-15T09:41:03.956Z,77.70
2018-04-15T09:43:35.842Z,75.70
2018-04-15T09:46:08.515Z,74.70
2018-04-15T09:48:41.154Z,74.50
2018-04-15T09:51:13.051Z,74.50
2018-04-15T09:53:44.920Z,75.00
2018-04-15T09:56:17.618Z,73.50
2018-04-15T09:58:49.463Z,73.50
2018-04-15T10:01:22.191Z,74.40
2018-04-15T10:03:54.075Z,74.40
2018-04-15T10:06:25.961Z,73.00
2018-04-15T10:08:58.602Z,67.70
2018-04-15T10:11:30.615Z,67.50
2018-04-15T10:14:02.484Z,66.90
2018-04-15T10:16:34.585Z,66.40
2018-04-15T10:19:06.499Z,64.30
2018-04-15T10:21:38.377Z,65.50
2018-04-15T10:24:10.601Z,66.40
2018-04-15T10:26:43.252Z,66.10
2018-04-15T10:29:15.229Z,66.90
2018-04-15T10:31:47.145Z,66.80
2018-04-15T10:34:19.009Z,68.50
2018-04-15T10:36:50.894Z,69.70
2018-04-15T10:39:22.762Z,70.50
2018-04-15T10:41:54.887Z,71.10
2018-04-15T10:44:27.042Z,70.90
2018-04-15T10:46:59.161Z,72.00
2018-04-15T10:49:31.033Z,71.80
2018-04-15T10:52:02.932Z,71.50
2018-04-15T10:54:34.841Z,72.00
2018-04-15T10:57:06.703Z,70.80
2018-04-15T10:59:38.574Z,69.40
2018-04-15T11:02:10.519Z,69.60
2018-04-15T11:04:42.741Z,69.70
2018-04-15T11:07:14.661Z,69.20
2018-04-15T11:09:46.552Z,68.20
2018-04-15T11:12:19.446Z,67.80
2018-04-15T11:14:51.325Z,67.70
2018-04-15T11:17:23.226Z,67.50
2018-04-15T11:19:55.088Z,66.50
2018-04-15T11:22:26.976Z,68.10
2018-04-15T11:24:59.613Z,67.50
2018-04-15T11:27:32.271Z,67.50
2018-04-15T11:30:04.152Z,67.50
2018-04-15T11:32:36.263Z,67.20
2018-04-15T11:35:08.557Z,66.80
2018-04-15T11:37:40.426Z,67.30
2018-04-15T11:40:12.318Z,67.80
2018-04-15T11:42:44.215Z,65.50
2018-04-15T11:45:16.931Z,65.70
2018-04-15T11:47:48.781Z,65.70
2018-04-15T11:50:20.667Z,66.20
2018-04-15T11:52:52.566Z,66.80
2018-04-15T11:55:25.209Z,65.00
2018-04-15T11:57:57.096Z,64.80
2018-04-15T12:00:29.734Z,65.10
2018-04-15T12:03:01.633Z,64.60
2018-04-15T12:05:34.541Z,66.40
2018-04-15T12:08:06.436Z,66.40
2018-04-15T12:10:38.309Z,66.20
2018-04-15T12:13:10.202Z,64.30
2018-04-15T12:15:42.842Z,64.70
2018-04-15T12:18:14.726Z,64.60
2018-04-15T12:20:46.603Z,64.50
2018-04-15T12:23:19.250Z,64.50
2018-04-15T12:25:51.135Z,64.40
2018-04-15T12:28:23.793Z,61.10
2018-04-15T12:30:55.662Z,61.00
2018-04-15T12:33:27.601Z,61.80
2018-04-15T12:35:59.478Z,61.70
2018-04-15T12:38:31.685Z,59.30
2018-04-15T12:41:03.579Z,60.20
2018-04-15T12:43:35.466Z,60.20
2018-04-15T12:46:07.332Z,59.60
2018-04-15T12:48:39.222Z,58.50
2018-04-15T12:51:11.093Z,58.00
2018-04-15T12:53:42.986Z,59.20
2018-04-15T12:56:14.858Z,59.30
2018-04-15T12:58:46.761Z,59.70
2018-04-15T13:01:18.926Z,58.00
2018-04-15T13:03:50.840Z,59.20
2018-04-15T13:06:22.717Z,60.10
2018-04-15T13:08:54.607Z,60.30
2018-04-15T13:11:26.490Z,59.80
2018-04-15T13:13:58.374Z,58.80
2018-04-15T13:16:30.496Z,59.20
2018-04-15T13:19:02.370Z,58.00
2018-04-15T13:21:34.264Z,58.70
2018-04-15T13:24:06.150Z,59.00
2018-04-15T13:26:38.785Z,58.70
2018-04-15T13:29:10.672Z,58.70
2018-04-15T13:31:42.549Z,59.20
2018-04-15T13:34:14.438Z,58.20
2018-04-15T13:36:46.309Z,59.10
2018-04-15T13:39:18.201Z,58.80
2018-04-15T13:41:50.846Z,59.10
2018-04-15T13:44:22.997Z,59.10
2018-04-15T13:46:54.894Z,58.50
2018-04-15T13:49:27.041Z,59.20
2018-04-15T13:51:58.955Z,59.70
2018-04-15T13:54:30.857Z,60.20
2018-04-15T13:57:02.761Z,60.30
2018-04-15T13:59:34.669Z,59.00
2018-04-15T14:02:06.535Z,58.30
2018-04-15T14:04:38.422Z,58.50
2018-04-15T14:07:10.289Z,58.20
2018-04-15T14:09:42.189Z,58.40
2018-04-15T14:12:14.825Z,59.50
2018-04-15T14:14:46.709Z,59.40
2018-04-15T14:17:18.586Z,58.80
2018-04-15T14:19:51.247Z,60.90
2018-04-15T14:22:23.122Z,60.80
2018-04-15T14:24:55.777Z,59.70
2018-04-15T14:27:27.650Z,59.70
2018-04-15T14:29:59.531Z,59.40
2018-04-15T14:32:32.162Z,59.20
2018-04-15T14:35:04.037Z,59.10
2018-04-15T14:37:36.142Z,58.90
2018-04-15T14:40:08.040Z,59.00
2018-04-15T14:42:39.995Z,59.40
2018-04-15T14:45:12.854Z,59.50
2018-04-15T14:47:44.807Z,60.00
2018-04-15T14:50:17.463Z,59.60
2018-04-15T14:52:50.096Z,56.90
2018-04-15T14:55:21.985Z,56.90
2018-04-15T14:57:53.874Z,57.80
2018-04-15T15:00:26.530Z,55.60
2018-04-15T15:02:58.730Z,55.50
2018-04-15T15:05:30.625Z,56.30
2018-04-15T15:08:02.597Z,56.60
2018-04-15T15:10:34.490Z,55.70
2018-04-15T15:13:06.358Z,55.80
2018-04-15T15:15:39.005Z,54.70
2018-04-15T15:18:11.777Z,54.60
2018-04-15T15:20:44.435Z,55.20
2018-04-15T15:23:16.313Z,55.20
2018-04-15T15:25:48.202Z,53.80
2018-04-15T15:28:20.148Z,53.20
2018-04-15T15:30:52.726Z,54.30
2018-04-15T15:33:24.601Z,54.30
2018-04-15T15:35:56.797Z,54.80
2018-04-15T15:38:28.745Z,55.70
2018-04-15T15:41:00.626Z,54.80
2018-04-15T15:43:32.505Z,55.50
2018-04-15T15:46:04.396Z,55.60
2018-04-15T15:48:36.265Z,55.70
2018-04-15T15:51:08.971Z,57.40
2018-04-15T15:53:40.841Z,57.30
2018-04-15T15:56:12.725Z,57.60
2018-04-15T15:58:44.592Z,58.00
2018-04-15T16:01:16.719Z,57.90
2018-04-15T16:03:48.609Z,59.00
2018-04-15T16:06:20.493Z,58.20
2018-04-15T16:08:52.374Z,58.20
2018-04-15T16:11:24.565Z,57.60
2018-04-15T16:13:56.446Z,57.90
2018-04-15T16:16:28.596Z,57.90
2018-04-15T16:19:00.477Z,57.40
2018-04-15T16:21:32.377Z,57.40
2018-04-15T16:24:04.265Z,57.70
2018-04-15T16:26:36.923Z,58.60
2018-04-15T16:29:08.811Z,58.60
2018-04-15T16:31:41.462Z,59.30
2018-04-15T16:34:13.370Z,59.30
2018-04-15T16:36:45.239Z,59.80
2018-04-15T16:39:17.382Z,59.60
2018-04-15T16:41:49.547Z,59.80
2018-04-15T16:44:21.446Z,60.20
2018-04-15T16:46:53.574Z,60.10
2018-04-15T16:49:25.462Z,59.60
2018-04-15T16:51:57.374Z,59.50
2018-04-15T16:54:30.029Z,59.40
2018-04-15T16:57:02.678Z,59.30
2018-04-15T16:59:34.669Z,59.30
2018-04-15T17:02:06.879Z,59.90
2018-04-15T17:04:38.755Z,60.10
2018-04-15T17:07:10.642Z,59.80
2018-04-15T17:09:42.527Z,60.10
2018-04-15T17:12:14.446Z,61.00
2018-04-15T17:14:46.318Z,61.40
2018-04-15T17:17:18.221Z,61.50
2018-04-15T17:19:50.861Z,62.00
2018-04-15T17:22:22.786Z,62.00
2018-04-15T17:24:55.410Z,62.60
2018-04-15T17:27:27.547Z,62.60
2018-04-15T17:29:59.398Z,63.50
2018-04-15T17:32:31.285Z,63.30
2018-04-15T17:35:03.154Z,63.70
2018-04-15T17:37:35.113Z,64.00
2018-04-15T17:40:07.067Z,64.10
2018-04-15T17:42:38.957Z,64.30
2018-04-15T17:45:10.851Z,64.80
2018-04-15T17:47:43.385Z,64.30
2018-04-15T17:50:15.257Z,65.50
2018-04-15T17:52:47.981Z,66.00
2018-04-15T17:55:19.816Z,66.00
2018-04-15T17:57:52.809Z,67.20
2018-04-15T18:00:24.973Z,67.20
2018-04-15T18:02:57.076Z,67.10
2018-04-15T18:05:29.252Z,67.40
2018-04-15T18:08:01.115Z,67.30
2018-04-15T18:10:33.002Z,67.40
2018-04-15T18:13:05.692Z,68.30
2018-04-15T18:15:38.325Z,69.60
2018-04-15T18:18:10.210Z,69.40
2018-04-15T18:20:42.094Z,69.10
2018-04-15T18:23:14.770Z,69.70
2018-04-15T18:25:47.705Z,69.80
2018-04-15T18:28:19.575Z,69.80
2018-04-15T18:30:51.451Z,71.00
2018-04-15T18:33:23.352Z,72.00
2018-04-15T18:35:55.220Z,72.00
2018-04-15T18:38:27.145Z,72.40
2018-04-15T18:40:59.782Z,72.50
2018-04-15T18:43:31.694Z,72.40
2018-04-15T18:46:04.335Z,72.60
2018-04-15T18:48:36.242Z,72.60
2018-04-15T18:51:08.886Z,73.80
2018-04-15T18:53:41.091Z,73.70
2018-04-15T18:56:12.962Z,74.60
2018-04-15T18:58:44.856Z,74.60
2018-04-15T19:01:16.743Z,74.60
2018-04-15T19:03:48.727Z,74.80
2018-04-15T19:06:21.461Z,76.00
2018-04-15T19:08:53.356Z,75.90
2018-04-15T19:11:25.997Z,77.70
2018-04-15T19:13:57.914Z,77.60
2018-04-15T19:16:29.863Z,77.90
2018-04-15T19:19:01.784Z,78.10
2018-04-15T19:21:34.010Z,78.20
2018-04-15T19:24:05.991Z,78.00
2018-04-15T19:26:37.875Z,77.50
2018-04-15T19:29:09.775Z,78.00
2018-04-15T19:31:42.430Z,78.90
2018-04-15T19:34:14.344Z,78.70
2018-04-15T19:36:46.253Z,78.10
2018-04-15T19:39:18.194Z,78.60
2018-04-15T19:41:50.122Z,79.00
2018-04-15T19:44:22.013Z,78.80
2018-04-15T19:46:53.891Z,78.80
2018-04-15T19:49:25.867Z,79.30
2018-04-15T19:51:57.703Z,79.20
2018-04-15T19:54:29.598Z,79.60
